createdAt,value
2022-12-28T00:02:19.038Z,101606.75
2022-12-28T00:04:40.967Z,101603.19
2022-12-28T00:07:02.782Z,101580.19
2022-12-28T00:09:25.218Z,101565.91
2022-12-28T00:11:47.207Z,101564.56
2022-12-28T00:14:09.096Z,101576.63
2022-12-28T00:16:35.472Z,101564.28
2022-12-28T00:19:00.256Z,101551.66
2022-12-28T00:21:22.627Z,101562.03
2022-12-28T00:23:44.451Z,101549.47
2022-12-28T00:26:13.921Z,101541.78
2022-12-28T00:28:36.213Z,101535.16
2022-12-28T00:30:58.138Z,101540.38
2022-12-28T00:33:20.179Z,101526.97
2022-12-28T00:35:41.999Z,101514.09
2022-12-28T00:38:03.856Z,101508.31
2022-12-28T00:40:25.685Z,101504.47
2022-12-28T00:42:47.619Z,101499.56
2022-12-28T00:45:09.964Z,101496.53
2022-12-28T00:47:32.316Z,101485.31
2022-12-28T00:49:54.200Z,101487.50
2022-12-28T00:52:16.058Z,101484.53
2022-12-28T00:54:37.924Z,101478.25
2022-12-28T00:56:59.772Z,101485.13
2022-12-28T00:59:21.582Z,101481.25
2022-12-28T01:01:43.708Z,101479.84
2022-12-28T01:04:05.902Z,101474.38
2022-12-28T01:06:29.189Z,101477.66
2022-12-28T01:08:52.821Z,101464.47
2022-12-28T01:11:23.411Z,101472.94
2022-12-28T01:13:45.941Z,101464.13
2022-12-28T01:16:21.889Z,101454.78
2022-12-28T01:18:46.034Z,101446.56
2022-12-28T01:21:17.501Z,101447.91
2022-12-28T01:23:39.575Z,101457.19
2022-12-28T01:26:02.647Z,101459.03
2022-12-28T01:28:24.452Z,101447.19
2022-12-28T01:30:46.308Z,101450.47
2022-12-28T01:33:08.194Z,101431.78
2022-12-28T01:35:29.976Z,101422.47
2022-12-28T01:37:52.374Z,101441.84
2022-12-28T01:40:16.080Z,101416.91
2022-12-28T01:42:40.104Z,101415.78
2022-12-28T01:45:22.628Z,101425.66
2022-12-28T01:47:48.305Z,101425.31
2022-12-28T01:50:17.902Z,101415.41
2022-12-28T01:52:59.798Z,101406.59
2022-12-28T01:55:30.377Z,101405.78
2022-12-28T01:58:06.006Z,101381.09
2022-12-28T02:00:29.172Z,101375.34
2022-12-28T02:02:59.458Z,101383.75
2022-12-28T02:05:28.654Z,101374.97
2022-12-28T02:08:08.096Z,101368.34
2022-12-28T02:10:43.092Z,101359.00
2022-12-28T02:13:08.842Z,101355.97
2022-12-28T02:15:30.734Z,101346.84
2022-12-28T02:17:52.710Z,101339.94
2022-12-28T02:20:14.697Z,101335.28
2022-12-28T02:23:24.304Z,101334.19
2022-12-28T02:26:21.018Z,101314.66
2022-12-28T02:28:59.072Z,101296.28
2022-12-28T02:31:36.385Z,101300.38
2022-12-28T02:34:15.487Z,101298.13
2022-12-28T02:36:52.650Z,101285.72
2022-12-28T02:39:31.949Z,101298.53
2022-12-28T02:41:56.315Z,101277.09
2022-12-28T02:44:38.662Z,101267.78
2022-12-28T02:47:19.928Z,101263.09
2022-12-28T02:50:00.314Z,101263.00
2022-12-28T02:52:53.974Z,101256.91
2022-12-28T02:56:07.257Z,101267.25
2022-12-28T02:58:58.350Z,101250.69
2022-12-28T03:01:48.387Z,101249.59
2022-12-28T03:05:10.711Z,101248.47
2022-12-28T03:08:09.285Z,101254.78
2022-12-28T03:11:03.327Z,101255.59
2022-12-28T03:13:43.448Z,101248.78
2022-12-28T03:16:12.972Z,101246.34
2022-12-28T03:18:57.814Z,101249.38
2022-12-28T03:21:43.231Z,101244.50
2022-12-28T03:24:29.507Z,101240.72
2022-12-28T03:27:12.876Z,101229.56
2022-12-28T03:30:13.875Z,101221.16
2022-12-28T03:32:36.493Z,101224.19
2022-12-28T03:34:59.168Z,101212.41
2022-12-28T03:37:31.150Z,101218.19
2022-12-28T03:40:24.880Z,101224.69
2022-12-28T03:43:13.172Z,101207.13
2022-12-28T03:45:51.299Z,101214.84
2022-12-28T03:48:17.586Z,101200.03
2022-12-28T03:50:44.615Z,101207.91
2022-12-28T03:53:09.921Z,101210.66
2022-12-28T03:55:35.650Z,101195.03
2022-12-28T03:57:57.642Z,101211.50
2022-12-28T04:00:23.243Z,101195.53
2022-12-28T04:02:47.788Z,101202.66
2022-12-28T04:05:10.025Z,101207.00
2022-12-28T04:07:34.821Z,101188.31
2022-12-28T04:09:56.668Z,101183.63
2022-12-28T04:12:18.504Z,101197.88
2022-12-28T04:15:07.634Z,101184.38
2022-12-28T04:17:30.108Z,101182.94
2022-12-28T04:19:51.960Z,101188.63
2022-12-28T04:22:13.788Z,101178.16
2022-12-28T04:24:35.768Z,101169.91
2022-12-28T04:26:57.572Z,101176.72
2022-12-28T04:29:19.548Z,101180.78
2022-12-28T04:32:03.209Z,101172.53
2022-12-28T04:34:25.202Z,101160.47
2022-12-28T04:36:52.469Z,101179.06
2022-12-28T04:39:16.507Z,101179.84
2022-12-28T04:41:38.560Z,101168.59
2022-12-28T04:44:00.564Z,101183.91
2022-12-28T04:46:24.014Z,101181.97
2022-12-28T04:48:45.982Z,101167.97
2022-12-28T04:51:18.443Z,101165.72
2022-12-28T04:53:41.483Z,101162.97
2022-12-28T04:56:05.628Z,101170.88
2022-12-28T04:58:27.601Z,101174.13
2022-12-28T05:00:49.478Z,101166.72
2022-12-28T05:03:11.346Z,101157.66
2022-12-28T05:05:33.660Z,101158.47
2022-12-28T05:07:59.802Z,101153.81
2022-12-28T05:10:22.155Z,101138.97
2022-12-28T05:12:44.064Z,101142.22
2022-12-28T05:15:07.189Z,101138.34
2022-12-28T05:17:28.976Z,101142.72
2022-12-28T05:19:50.843Z,101147.88
2022-12-28T05:22:12.896Z,101153.88
2022-12-28T05:24:35.103Z,101157.13
2022-12-28T05:26:56.962Z,101145.00
2022-12-28T05:29:18.844Z,101156.00
2022-12-28T05:31:40.608Z,101143.41
2022-12-28T05:34:02.536Z,101154.91
2022-12-28T05:36:27.147Z,101154.25
2022-12-28T05:38:49.163Z,101152.66
2022-12-28T05:41:24.976Z,101152.31
2022-12-28T05:43:47.999Z,101154.25
2022-12-28T05:46:14.559Z,101148.47
2022-12-28T05:48:40.206Z,101151.22
2022-12-28T05:51:07.779Z,101141.84
2022-12-28T05:53:31.895Z,101147.84
2022-12-28T05:55:53.707Z,101133.31
2022-12-28T05:58:15.508Z,101138.81
2022-12-28T06:00:37.471Z,101130.22
2022-12-28T06:02:59.395Z,101133.22
2022-12-28T06:05:21.394Z,101126.59
2022-12-28T06:07:43.235Z,101121.94
2022-12-28T06:10:05.725Z,101118.06
2022-12-28T06:12:27.870Z,101104.31
2022-12-28T06:14:49.747Z,101109.19
2022-12-28T06:17:11.660Z,101110.81
2022-12-28T06:19:33.449Z,101105.81
2022-12-28T06:21:55.420Z,101100.00
2022-12-28T06:24:18.987Z,101098.91
2022-12-28T06:26:41.701Z,101097.75
2022-12-28T06:29:04.659Z,101095.53
2022-12-28T06:31:32.677Z,101098.78
2022-12-28T06:33:57.299Z,101088.75
2022-12-28T06:36:26.654Z,101100.25
2022-12-28T06:38:54.712Z,101089.75
2022-12-28T06:41:19.936Z,101098.00
2022-12-28T06:43:43.902Z,101101.56
2022-12-28T06:46:07.178Z,101104.00
2022-12-28T06:48:31.762Z,101088.03
2022-12-28T06:51:21.278Z,101094.63
2022-12-28T06:53:44.999Z,101084.78
2022-12-28T06:56:12.007Z,101086.88
2022-12-28T06:58:34.534Z,101093.19
2022-12-28T07:00:57.664Z,101097.22
2022-12-28T07:03:19.764Z,101089.50
2022-12-28T07:05:41.609Z,101086.44
2022-12-28T07:08:07.683Z,101091.94
2022-12-28T07:10:34.060Z,101089.34
2022-12-28T07:12:55.913Z,101089.84
2022-12-28T07:15:17.750Z,101089.56
2022-12-28T07:17:39.529Z,101090.34
2022-12-28T07:20:01.339Z,101083.72
2022-12-28T07:22:23.156Z,101084.56
2022-12-28T07:24:45.026Z,101083.41
2022-12-28T07:27:06.818Z,101088.59
2022-12-28T07:29:28.684Z,101080.84
2022-12-28T07:31:50.524Z,101075.03
2022-12-28T07:34:13.916Z,101084.06
2022-12-28T07:36:35.849Z,101091.72
2022-12-28T07:38:59.084Z,101084.56
2022-12-28T07:41:25.332Z,101071.34
2022-12-28T07:43:47.699Z,101081.81
2022-12-28T07:46:21.749Z,101079.09
2022-12-28T07:48:45.511Z,101082.97
2022-12-28T07:51:21.264Z,101088.97
2022-12-28T07:53:47.328Z,101091.38
2022-12-28T07:56:10.164Z,101091.06
2022-12-28T07:58:32.769Z,101095.13
2022-12-28T08:00:54.864Z,101098.69
2022-12-28T08:03:18.289Z,101090.44
2022-12-28T08:05:40.187Z,101097.56
2022-12-28T08:08:03.947Z,101081.06
2022-12-28T08:10:26.021Z,101092.53
2022-12-28T08:12:47.957Z,101077.69
2022-12-28T08:15:10.392Z,101083.19
2022-12-28T08:17:32.281Z,101085.13
2022-12-28T08:19:55.575Z,101078.78
2022-12-28T08:22:17.581Z,101076.53
2022-12-28T08:24:39.475Z,101081.75
2022-12-28T08:27:01.428Z,101086.59
2022-12-28T08:29:23.650Z,101072.34
2022-12-28T08:31:47.002Z,101074.78
2022-12-28T08:34:14.468Z,101076.41
2022-12-28T08:36:36.767Z,101066.22
2022-12-28T08:39:00.900Z,101077.53
2022-12-28T08:41:25.632Z,101084.34
2022-12-28T08:43:48.748Z,101075.28
2022-12-28T08:46:16.475Z,101083.53
2022-12-28T08:48:39.276Z,101067.03
2022-12-28T08:51:12.463Z,101073.03
2022-12-28T08:53:35.969Z,101071.41
2022-12-28T08:56:12.150Z,101079.00
2022-12-28T08:58:34.457Z,101070.75
2022-12-28T09:00:56.557Z,101070.13
2022-12-28T09:03:18.504Z,101074.81
2022-12-28T09:05:40.550Z,101070.94
2022-12-28T09:08:02.566Z,101075.31
2022-12-28T09:10:24.423Z,101070.31
2022-12-28T09:12:46.343Z,101077.09
2022-12-28T09:15:09.421Z,101077.09
2022-12-28T09:17:31.323Z,101071.28
2022-12-28T09:19:53.193Z,101071.78
2022-12-28T09:22:15.123Z,101069.84
2022-12-28T09:24:37.045Z,101082.44
2022-12-28T09:26:58.892Z,101069.19
2022-12-28T09:29:20.891Z,101076.34
2022-12-28T09:31:44.159Z,101072.44
2022-12-28T09:36:51.536Z,101078.75
2022-12-28T09:39:22.908Z,101074.88
2022-12-28T09:41:53.841Z,101082.28
2022-12-28T09:44:31.704Z,101068.25
2022-12-28T09:47:03.663Z,101068.25
2022-12-28T09:49:46.247Z,101073.44
2022-12-28T09:52:14.201Z,101065.97
2022-12-28T09:54:36.364Z,101063.25
2022-12-28T09:56:58.452Z,101066.78
2022-12-28T09:59:25.820Z,101066.47
2022-12-28T10:01:57.867Z,101063.41
2022-12-28T10:04:19.981Z,101063.88
2022-12-28T10:06:43.974Z,101061.63
2022-12-28T10:09:17.987Z,101063.25
2022-12-28T10:11:43.662Z,101064.06
2022-12-28T10:14:30.343Z,101051.63
2022-12-28T10:16:52.780Z,101055.97
2022-12-28T10:19:22.970Z,101063.56
2022-12-28T10:21:47.814Z,101061.31
2022-12-28T10:26:59.261Z,101043.06
2022-12-28T10:29:23.713Z,101047.41
2022-12-28T10:32:09.647Z,101050.66
2022-12-28T10:34:35.204Z,101033.03
2022-12-28T10:37:25.704Z,101040.94
2022-12-28T10:40:07.343Z,101040.94
2022-12-28T10:42:35.811Z,101033.03
2022-12-28T10:45:06.419Z,101022.03
2022-12-28T10:47:41.206Z,101034.94
2022-12-28T10:52:58.036Z,101032.69
2022-12-28T10:55:33.350Z,101029.13
2022-12-28T10:58:27.849Z,101024.78
2022-12-28T11:00:38.531Z,101034.63
2022-12-28T11:03:00.727Z,101022.47
2022-12-28T11:05:25.389Z,101024.13
2022-12-28T11:07:50.446Z,101022.47
2022-12-28T11:10:27.810Z,101014.22
2022-12-28T11:12:52.582Z,101010.69
2022-12-28T11:15:21.496Z,101006.47
2022-12-28T11:17:48.280Z,101012.78
2022-12-28T11:20:26.957Z,101005.34
2022-12-28T11:22:49.140Z,101003.41
2022-12-28T11:25:29.218Z,100995.63
2022-12-28T11:27:51.135Z,100995.94
2022-12-28T11:30:19.453Z,100988.84
2022-12-28T11:32:58.596Z,100990.44
2022-12-28T11:35:28.320Z,100989.31
2022-12-28T11:37:54.413Z,100976.38
2022-12-28T11:40:44.722Z,100973.28
2022-12-28T11:43:29.278Z,100977.19
2022-12-28T11:45:56.691Z,100974.13
2022-12-28T11:48:43.576Z,100984.13
2022-12-28T11:51:06.173Z,100972.31
2022-12-28T11:53:34.068Z,100961.78
2022-12-28T11:56:09.762Z,100961.13
2022-12-28T11:58:31.667Z,100955.63
2022-12-28T12:00:53.880Z,100962.78
2022-12-28T12:03:15.838Z,100944.78
2022-12-28T12:05:37.791Z,100959.69
2022-12-28T12:07:59.722Z,100944.00
2022-12-28T12:10:31.355Z,100940.91
2022-12-28T12:12:53.790Z,100936.19
2022-12-28T12:15:22.620Z,100936.19
2022-12-28T12:17:56.874Z,100933.44
2022-12-28T12:20:52.261Z,100932.31
2022-12-28T12:23:50.377Z,100902.84
2022-12-28T12:26:53.125Z,100923.59
2022-12-28T12:29:21.194Z,100914.34
2022-12-28T12:31:50.663Z,100909.69
2022-12-28T12:34:39.432Z,100912.09
2022-12-28T12:38:15.918Z,100906.28
2022-12-28T12:41:12.449Z,100905.47
2022-12-28T12:44:15.104Z,100902.38
2022-12-28T12:47:06.079Z,100895.75
2022-12-28T12:50:00.594Z,100888.28
2022-12-28T12:52:41.939Z,100878.75
2022-12-28T12:55:32.762Z,100874.84
2022-12-28T12:58:45.867Z,100874.34
2022-12-28T13:01:55.632Z,100866.28
2022-12-28T13:04:26.148Z,100852.50
2022-12-28T13:06:56.872Z,100860.41
2022-12-28T13:09:20.817Z,100840.84
2022-12-28T13:11:43.964Z,100838.88
2022-12-28T13:14:06.926Z,100833.88
2022-12-28T13:16:31.243Z,100828.03
2022-12-28T13:19:07.178Z,100822.66
2022-12-28T13:21:51.041Z,100817.97
2022-12-28T13:24:35.027Z,100811.66
2022-12-28T13:26:59.813Z,100812.81
2022-12-28T13:29:26.059Z,100807.31
2022-12-28T13:31:51.698Z,100794.34
2022-12-28T13:34:13.581Z,100794.03
2022-12-28T13:36:35.659Z,100783.00
2022-12-28T13:39:14.790Z,100780.72
2022-12-28T13:41:38.857Z,100764.69
2022-12-28T13:44:31.553Z,100766.31
2022-12-28T13:47:20.014Z,100756.41
2022-12-28T13:50:03.505Z,100756.41
2022-12-28T13:52:45.687Z,100751.38
2022-12-28T13:55:18.397Z,100738.31
2022-12-28T13:57:49.115Z,100748.63
2022-12-28T14:00:21.638Z,100743.13
2022-12-28T14:02:44.047Z,100735.22
2022-12-28T14:05:06.340Z,100740.72
2022-12-28T14:07:30.518Z,100730.03
2022-12-28T14:09:53.940Z,100734.06
2022-12-28T14:12:17.802Z,100725.50
2022-12-28T14:14:41.935Z,100719.97
2022-12-28T14:17:05.487Z,100707.50
2022-12-28T14:19:29.068Z,100691.44
2022-12-28T14:21:51.449Z,100696.59
2022-12-28T14:24:16.428Z,100686.88
2022-12-28T14:26:48.859Z,100675.53
2022-12-28T14:29:21.493Z,100676.34
2022-12-28T14:31:44.044Z,100670.72
2022-12-28T14:34:17.518Z,100666.47
2022-12-28T14:36:47.781Z,100666.13
2022-12-28T14:39:31.243Z,100655.59
2022-12-28T14:41:54.857Z,100647.31
2022-12-28T14:44:33.306Z,100646.69
2022-12-28T14:46:56.830Z,100655.41
2022-12-28T14:49:31.060Z,100640.97
2022-12-28T14:51:53.071Z,100648.09
2022-12-28T14:54:25.131Z,100645.47
2022-12-28T14:57:06.430Z,100643.72
2022-12-28T14:59:38.584Z,100646.03
2022-12-28T15:02:00.663Z,100640.38
2022-12-28T15:04:35.122Z,100634.03
2022-12-28T15:06:57.095Z,100618.63
2022-12-28T15:09:19.069Z,100624.97
2022-12-28T15:11:42.438Z,100620.25
2022-12-28T15:14:04.458Z,100621.56
2022-12-28T15:16:26.412Z,100614.91
2022-12-28T15:18:49.041Z,100604.25
2022-12-28T15:21:21.385Z,100603.44
2022-12-28T15:23:44.221Z,100599.88
2022-12-28T15:26:13.937Z,100592.44
2022-12-28T15:28:36.233Z,100588.06
2022-12-28T15:30:58.197Z,100586.09
2022-12-28T15:33:20.141Z,100579.78
2022-12-28T15:35:42.067Z,100575.09
2022-12-28T15:38:04.862Z,100583.00
2022-12-28T15:40:26.799Z,100562.16
2022-12-28T15:42:48.800Z,100557.44
2022-12-28T15:45:11.145Z,100557.75
2022-12-28T15:47:33.195Z,100562.44
2022-12-28T15:49:55.102Z,100556.47
2022-12-28T15:52:17.147Z,100551.13
2022-12-28T15:54:41.346Z,100542.03
2022-12-28T15:57:07.406Z,100540.41
2022-12-28T15:59:29.669Z,100540.41
2022-12-28T16:01:52.035Z,100535.41
2022-12-28T16:04:14.879Z,100523.25
2022-12-28T16:06:43.622Z,100531.03
2022-12-28T16:09:07.034Z,100523.88
2022-12-28T16:11:30.668Z,100509.31
2022-12-28T16:13:58.708Z,100523.88
2022-12-28T16:16:22.869Z,100517.13
2022-12-28T16:18:44.870Z,100508.06
2022-12-28T16:21:10.302Z,100511.81
2022-12-28T16:23:35.866Z,100504.22
2022-12-28T16:25:58.813Z,100506.19
2022-12-28T16:28:20.684Z,100500.66
2022-12-28T16:30:49.487Z,100497.44
2022-12-28T16:33:11.429Z,100501.34
2022-12-28T16:35:33.918Z,100498.13
2022-12-28T16:37:55.939Z,100487.00
2022-12-28T16:40:18.013Z,100484.25
2022-12-28T16:42:46.104Z,100479.06
2022-12-28T16:45:08.765Z,100470.22
2022-12-28T16:47:30.765Z,100468.97
2022-12-28T16:49:53.738Z,100455.84
2022-12-28T16:52:16.090Z,100451.50
2022-12-28T16:54:38.036Z,100448.66
2022-12-28T16:56:59.909Z,100458.03
2022-12-28T16:59:26.091Z,100453.31
2022-12-28T17:01:49.232Z,100441.41
2022-12-28T17:04:12.118Z,100435.44
2022-12-28T17:06:33.979Z,100429.47
2022-12-28T17:08:55.803Z,100429.47
2022-12-28T17:11:18.496Z,100426.22
2022-12-28T17:13:40.457Z,100416.72
2022-12-28T17:16:02.783Z,100407.66
2022-12-28T17:18:24.756Z,100404.91
2022-12-28T17:20:46.691Z,100400.19
2022-12-28T17:23:09.005Z,100397.78
2022-12-28T17:25:32.817Z,100394.59
2022-12-28T17:27:55.185Z,100395.25
2022-12-28T17:30:17.143Z,100392.16
2022-12-28T17:32:39.451Z,100386.56
2022-12-28T17:35:01.400Z,100394.81
2022-12-28T17:37:23.336Z,100373.91
2022-12-28T17:39:45.297Z,100381.06
2022-12-28T17:42:08.075Z,100380.22
2022-12-28T17:44:30.169Z,100375.53
2022-12-28T17:46:52.183Z,100375.53
2022-12-28T17:49:16.748Z,100368.09
2022-12-28T17:51:41.892Z,100362.91
2022-12-28T17:54:03.848Z,100361.31
2022-12-28T17:56:27.013Z,100365.66
2022-12-28T17:58:49.556Z,100371.16
2022-12-28T18:01:13.624Z,100348.69
2022-12-28T18:03:37.612Z,100334.16
2022-12-28T18:05:59.615Z,100332.88
2022-12-28T18:08:22.824Z,100333.69
2022-12-28T18:10:46.572Z,100319.13
2022-12-28T18:13:08.776Z,100322.69
2022-12-28T18:15:34.003Z,100307.31
2022-12-28T18:17:55.946Z,100311.34
2022-12-28T18:20:17.881Z,100294.03
2022-12-28T18:22:39.917Z,100300.66
2022-12-28T18:25:01.869Z,100305.38
2022-12-28T18:27:23.820Z,100300.19
2022-12-28T18:29:45.687Z,100296.66
2022-12-28T18:32:07.633Z,100299.75
2022-12-28T18:34:29.527Z,100291.50
2022-12-28T18:36:51.481Z,100291.50
2022-12-28T18:39:13.359Z,100287.94
2022-12-28T18:41:36.563Z,100287.13
2022-12-28T18:44:01.152Z,100287.13
2022-12-28T18:46:23.115Z,100288.63
2022-12-28T18:48:45.091Z,100279.56
2022-12-28T18:51:11.307Z,100272.00
2022-12-28T18:53:34.370Z,100277.84
2022-12-28T18:56:19.745Z,100280.25
2022-12-28T18:58:43.390Z,100272.34
2022-12-28T19:04:10.870Z,100263.28
2022-12-28T19:06:33.779Z,100264.88
2022-12-28T19:09:03.951Z,100253.88
2022-12-28T19:11:27.199Z,100260.19
2022-12-28T19:13:49.075Z,100265.03
2022-12-28T19:16:17.397Z,100260.31
2022-12-28T19:18:39.277Z,100258.69
2022-12-28T19:21:27.505Z,100258.38
2022-12-28T19:23:55.048Z,100262.72
2022-12-28T19:26:16.979Z,100243.94
2022-12-28T19:28:39.973Z,100239.69
2022-12-28T19:31:05.013Z,100244.88
2022-12-28T19:33:27.161Z,100237.88
2022-12-28T19:35:48.952Z,100234.78
2022-12-28T19:38:10.891Z,100231.69
2022-12-28T19:40:32.917Z,100240.53
2022-12-28T19:42:55.023Z,100230.78
2022-12-28T19:45:18.298Z,100235.94
2022-12-28T19:47:40.209Z,100227.00
2022-12-28T19:50:02.081Z,100221.94
2022-12-28T19:52:23.910Z,100225.16
2022-12-28T19:54:45.972Z,100216.56
2022-12-28T19:57:07.863Z,100222.19
2022-12-28T19:59:30.341Z,100229.31
2022-12-28T20:01:52.318Z,100229.31
2022-12-28T20:04:14.762Z,100207.28
2022-12-28T20:06:38.316Z,100219.88
2022-12-28T20:09:01.517Z,100217.59
2022-12-28T20:11:23.566Z,100219.19
2022-12-28T20:13:52.050Z,100216.91
2022-12-28T20:16:14.121Z,100205.91
2022-12-28T20:18:36.677Z,100205.56
2022-12-28T20:21:22.645Z,100199.72
2022-12-28T20:23:44.677Z,100197.41
2022-12-28T20:26:09.238Z,100206.91
2022-12-28T20:28:31.841Z,100208.19
2022-12-28T20:30:59.087Z,100211.41
2022-12-28T20:33:21.122Z,100193.75
2022-12-28T20:35:45.469Z,100188.25
2022-12-28T20:38:10.081Z,100196.97
2022-12-28T20:40:32.142Z,100186.75
2022-12-28T20:43:12.442Z,100184.88
2022-12-28T20:45:35.149Z,100178.25
2022-12-28T20:47:57.117Z,100183.06
2022-12-28T20:50:19.018Z,100184.31
2022-12-28T20:52:40.934Z,100182.47
2022-12-28T20:55:03.564Z,100188.09
2022-12-28T20:57:25.583Z,100174.81
2022-12-28T20:59:47.553Z,100176.06
2022-12-28T21:02:10.679Z,100173.41
2022-12-28T21:04:32.716Z,100175.47
2022-12-28T21:06:55.198Z,100181.53
2022-12-28T21:09:17.162Z,100162.69
2022-12-28T21:11:39.311Z,100166.72
2022-12-28T21:14:01.519Z,100167.97
2022-12-28T21:16:23.684Z,100168.88
2022-12-28T21:18:45.997Z,100179.19
2022-12-28T21:21:15.799Z,100175.72
2022-12-28T21:23:38.168Z,100171.13
2022-12-28T21:26:09.823Z,100167.31
2022-12-28T21:28:32.726Z,100155.97
2022-12-28T21:30:57.103Z,100175.34
2022-12-28T21:33:18.992Z,100156.84
2022-12-28T21:35:40.976Z,100153.41
2022-12-28T21:38:05.209Z,100150.66
2022-12-28T21:40:27.126Z,100150.28
2022-12-28T21:42:49.155Z,100147.97
2022-12-28T21:45:11.637Z,100145.66
2022-12-28T21:47:37.394Z,100150.00
2022-12-28T21:49:59.250Z,100134.72
2022-12-28T21:52:23.085Z,100139.56
2022-12-28T21:54:45.058Z,100130.91
2022-12-28T21:57:07.095Z,100128.63
2022-12-28T21:59:29.009Z,100132.16
2022-12-28T22:02:10.781Z,100130.19
2022-12-28T22:04:55.527Z,100112.88
2022-12-28T22:07:22.800Z,100117.59
2022-12-28T22:10:03.813Z,100120.34
2022-12-28T22:12:36.790Z,100127.44
2022-12-28T22:15:18.085Z,100116.41
2022-12-28T22:17:39.995Z,100112.19
2022-12-28T22:20:02.121Z,100107.47
2022-12-28T22:22:24.303Z,100102.75
2022-12-28T22:24:46.207Z,100103.19
2022-12-28T22:27:08.034Z,100104.00
2022-12-28T22:29:29.948Z,100093.41
2022-12-28T22:31:51.840Z,100094.94
2022-12-28T22:34:13.997Z,100084.69
2022-12-28T22:36:35.957Z,100087.09
2022-12-28T22:38:57.871Z,100095.00
2022-12-28T22:41:20.041Z,100094.66
2022-12-28T22:43:42.386Z,100089.16
2022-12-28T22:46:11.329Z,100093.50
2022-12-28T22:48:34.464Z,100093.16
2022-12-28T22:51:05.363Z,100088.88
2022-12-28T22:53:27.198Z,100092.88
2022-12-28T22:56:01.008Z,100069.66
2022-12-28T22:58:23.054Z,100096.44
2022-12-28T23:00:44.917Z,100090.56
2022-12-28T23:03:09.706Z,100093.31
2022-12-28T23:05:31.631Z,100091.38
2022-12-28T23:07:53.489Z,100090.66
2022-12-28T23:10:15.361Z,100084.00
2022-12-28T23:12:37.840Z,100087.88
2022-12-28T23:15:19.766Z,100091.47
2022-12-28T23:17:41.967Z,100086.03
2022-12-28T23:20:22.791Z,100081.31
2022-12-28T23:23:03.088Z,100082.09
2022-12-28T23:25:44.470Z,100077.41
2022-12-28T23:28:13.940Z,100066.00
2022-12-28T23:30:40.073Z,100073.81
2022-12-28T23:33:02.147Z,100066.38
2022-12-28T23:35:26.290Z,100058.91
2022-12-28T23:37:55.827Z,100049.84
2022-12-28T23:40:24.383Z,100050.28
2022-12-28T23:42:46.672Z,100037.63
2022-12-28T23:45:13.008Z,100041.19
2022-12-28T23:47:35.606Z,100029.00
2022-12-28T23:49:57.647Z,100034.25
2022-12-28T23:52:25.408Z,100027.94
2022-12-28T23:54:47.832Z,100019.28
2022-12-28T23:57:09.743Z,100009.88
2022-12-28T23:59:31.778Z,100008.25
